Página principal
METAR-TAF:

METAR-TAF

Aeroportos :

Malé, Hulhule Island, Maldivas

Aeroporto Internacional Velana

latitude: 04-12N, longitude: 073-32E, altura: 2 m

Observação actual do tempo

O boletim foi feito há 33 minutos, às 14:00 UTC
Vento 4 kt de oes-noroeste
Temperatura 29°C
Humidade 74%
Pressão 1011 hPa
Visibilidade 10 km ou mais
Nuvens dispersasa uma altura de 1800 ft
Nuvens fragmentadasa uma altura de 27000 ft

METAR: VRMM 231400Z 29004KT 9999 SCT018 BKN270 29/24 Q1011 NOSIG

Hora: 19:33 (14:33 UTC)

Previsão

O boletim foi feito há 3 horas e 33 minutos, às 11:00 UTC
Previsão válida de 23 às 12 UTC a 24 às 18 UTC
Vento 10 kt de oes-noroeste
Visibilidade 10 km ou mais
Poucas nuvensa uma altura de 1800 ft
Temporariamente
de 23 às 13 UTC a 23 às 20 UTC
Poucas nuvensa uma altura de 1900 ft, Cumulonimbus.

TAF: VRMM 231100Z 2312/2418 30010KT 9999 FEW018 TEMPO 2313/2320 FEW019CB

Observações e previsões do tempo de mais de 4000 aeroportos (mensagens METAR e TAF).

As estações disponíveis são os pontos amarelos e vermelhos sobre o mapa.

Mova o rato sobre o mapa para ver o nome da estação.

Depois clique no ponto para visualizar as observações e previsões meteorológicas.

Para alterar o mapa : clique nos botões verdes com uma cruz preta para aumentar o zoom; no botão verde com uma pitada de zoom; ou nas setas verdes para mapas adjacentes.


METAR-TAF: